sensor_id;sensor_type;location;lat;lon;timestamp;pressure;altitude;pressure_sealevel;temperature;humidity
57442;BME280;43284;47.042;15.498;2023-08-21T00:01:18;97694.59;;;19.21;100.00
57442;BME280;43284;47.042;15.498;2023-08-21T00:03:43;97698.44;;;19.17;100.00
57442;BME280;43284;47.042;15.498;2023-08-21T00:06:09;97686.84;;;19.07;100.00
57442;BME280;43284;47.042;15.498;2023-08-21T00:08:34;97693.19;;;19.04;100.00
57442;BME280;43284;47.042;15.498;2023-08-21T00:11:00;97689.84;;;19.02;100.00
57442;BME280;43284;47.042;15.498;2023-08-21T00:13:25;97689.94;;;19.01;100.00
57442;BME280;43284;47.042;15.498;2023-08-21T00:15:51;97693.53;;;19.00;100.00
57442;BME280;43284;47.042;15.498;2023-08-21T00:18:17;97688.38;;;18.98;100.00
57442;BME280;43284;47.042;15.498;2023-08-21T00:20:42;97681.47;;;18.96;100.00
57442;BME280;43284;47.042;15.498;2023-08-21T00:23:08;97682.69;;;18.91;100.00
57442;BME280;43284;47.042;15.498;2023-08-21T00:25:34;97689.03;;;18.89;100.00
57442;BME280;43284;47.042;15.498;2023-08-21T00:28:00;97683.63;;;18.90;100.00
57442;BME280;43284;47.042;15.498;2023-08-21T00:30:25;97683.53;;;18.92;100.00
57442;BME280;43284;47.042;15.498;2023-08-21T00:32:51;97687.13;;;18.91;100.00
57442;BME280;43284;47.042;15.498;2023-08-21T00:35:16;97681.97;;;18.89;100.00
57442;BME280;43284;47.042;15.498;2023-08-21T00:37:42;97678.34;;;18.90;100.00
57442;BME280;43284;47.042;15.498;2023-08-21T00:40:08;97682.56;;;18.93;100.00
57442;BME280;43284;47.042;15.498;2023-08-21T00:42:34;97678.13;;;18.93;100.00
57442;BME280;43284;47.042;15.498;2023-08-21T00:44:59;97686.38;;;18.89;100.00
57442;BME280;43284;47.042;15.498;2023-08-21T00:47:25;97682.41;;;18.83;100.00
57442;BME280;43284;47.042;15.498;2023-08-21T00:49:50;97679.53;;;18.86;100.00
57442;BME280;43284;47.042;15.498;2023-08-21T00:52:17;97687.91;;;18.80;100.00
57442;BME280;43284;47.042;15.498;2023-08-21T00:54:43;97682.44;;;18.70;100.00
57442;BME280;43284;47.042;15.498;2023-08-21T00:57:09;97684.44;;;18.67;100.00
57442;BME280;43284;47.042;15.498;2023-08-21T00:59:37;97688.06;;;18.66;100.00
57442;BME280;43284;47.042;15.498;2023-08-21T01:02:02;97685.31;;;18.67;100.00
57442;BME280;43284;47.042;15.498;2023-08-21T01:04:28;97687.09;;;18.67;100.00
57442;BME280;43284;47.042;15.498;2023-08-21T01:06:54;97690.06;;;18.62;100.00
57442;BME280;43284;47.042;15.498;2023-08-21T01:09:25;97688.50;;;18.60;100.00
57442;BME280;43284;47.042;15.498;2023-08-21T01:14:30;97686.69;;;18.60;100.00
57442;BME280;43284;47.042;15.498;2023-08-21T01:16:59;97684.19;;;18.59;100.00
57442;BME280;43284;47.042;15.498;2023-08-21T01:19:36;97685.13;;;18.58;100.00
57442;BME280;43284;47.042;15.498;2023-08-21T01:22:02;97688.75;;;18.57;100.00
57442;BME280;43284;47.042;15.498;2023-08-21T01:24:28;97694.13;;;18.55;100.00
57442;BME280;43284;47.042;15.498;2023-08-21T01:26:53;97693.31;;;18.55;100.00
57442;BME280;43284;47.042;15.498;2023-08-21T01:29:19;97688.00;;;18.55;100.00
57442;BME280;43284;47.042;15.498;2023-08-21T01:31:54;97685.47;;;18.53;100.00
57442;BME280;43284;47.042;15.498;2023-08-21T01:34:24;97688.34;;;18.50;100.00
57442;BME280;43284;47.042;15.498;2023-08-21T01:36:50;97691.09;;;18.48;100.00
57442;BME280;43284;47.042;15.498;2023-08-21T01:39:16;97690.78;;;18.40;100.00
57442;BME280;43284;47.042;15.498;2023-08-21T01:41:43;97692.38;;;18.43;100.00
57442;BME280;43284;47.042;15.498;2023-08-21T01:44:08;97692.59;;;18.40;100.00
57442;BME280;43284;47.042;15.498;2023-08-21T01:46:34;97683.09;;;18.37;100.00
57442;BME280;43284;47.042;15.498;2023-08-21T01:48:59;97691.97;;;18.36;100.00
57442;BME280;43284;47.042;15.498;2023-08-21T01:51:24;97686.16;;;18.31;100.00
57442;BME280;43284;47.042;15.498;2023-08-21T01:53:50;97687.09;;;18.30;100.00
57442;BME280;43284;47.042;15.498;2023-08-21T01:56:15;97694.34;;;18.28;100.00
57442;BME280;43284;47.042;15.498;2023-08-21T01:58:41;97692.72;;;18.25;100.00
57442;BME280;43284;47.042;15.498;2023-08-21T02:01:09;97690.41;;;18.21;100.00
57442;BME280;43284;47.042;15.498;2023-08-21T02:03:34;97688.84;;;18.18;100.00
57442;BME280;43284;47.042;15.498;2023-08-21T02:06:00;97687.03;;;18.19;100.00
57442;BME280;43284;47.042;15.498;2023-08-21T02:08:32;97695.41;;;18.12;100.00
57442;BME280;43284;47.042;15.498;2023-08-21T02:11:00;97690.09;;;18.12;100.00
57442;BME280;43284;47.042;15.498;2023-08-21T02:13:26;97690.00;;;18.14;100.00
57442;BME280;43284;47.042;15.498;2023-08-21T02:15:51;97689.41;;;18.10;100.00
57442;BME280;43284;47.042;15.498;2023-08-21T02:18:17;97687.69;;;18.09;100.00
57442;BME280;43284;47.042;15.498;2023-08-21T02:20:43;97692.25;;;18.07;100.00
57442;BME280;43284;47.042;15.498;2023-08-21T02:23:08;97685.13;;;18.08;100.00
57442;BME280;43284;47.042;15.498;2023-08-21T02:25:34;97697.53;;;18.07;100.00
57442;BME280;43284;47.042;15.498;2023-08-21T02:28:00;97689.41;;;18.10;100.00
57442;BME280;43284;47.042;15.498;2023-08-21T02:30:27;97691.16;;;18.10;100.00
57442;BME280;43284;47.042;15.498;2023-08-21T02:32:54;97697.44;;;18.09;100.00
57442;BME280;43284;47.042;15.498;2023-08-21T02:35:20;97698.38;;;18.08;100.00
57442;BME280;43284;47.042;15.498;2023-08-21T02:37:45;97701.66;;;18.11;100.00
57442;BME280;43284;47.042;15.498;2023-08-21T02:40:11;97694.97;;;18.06;100.00
57442;BME280;43284;47.042;15.498;2023-08-21T02:42:36;97690.75;;;18.03;100.00
57442;BME280;43284;47.042;15.498;2023-08-21T02:45:02;97689.09;;;18.02;100.00
57442;BME280;43284;47.042;15.498;2023-08-21T02:47:35;97697.34;;;17.98;100.00
57442;BME280;43284;47.042;15.498;2023-08-21T02:50:01;97692.38;;;17.93;100.00
57442;BME280;43284;47.042;15.498;2023-08-21T02:52:27;97699.34;;;17.94;100.00
57442;BME280;43284;47.042;15.498;2023-08-21T02:54:52;97694.28;;;17.91;100.00
57442;BME280;43284;47.042;15.498;2023-08-21T02:57:18;97695.97;;;17.92;100.00
57442;BME280;43284;47.042;15.498;2023-08-21T02:59:43;97696.06;;;17.90;100.00
57442;BME280;43284;47.042;15.498;2023-08-21T03:02:09;97690.91;;;17.89;100.00
57442;BME280;43284;47.042;15.498;2023-08-21T03:04:34;97689.31;;;17.86;100.00
57442;BME280;43284;47.042;15.498;2023-08-21T03:07:00;97695.53;;;17.85;100.00
57442;BME280;43284;47.042;15.498;2023-08-21T03:09:25;97694.69;;;17.85;100.00
57442;BME280;43284;47.042;15.498;2023-08-21T03:11:51;97686.97;;;17.82;100.00
57442;BME280;43284;47.042;15.498;2023-08-21T03:14:16;97680.06;;;17.79;100.00
57442;BME280;43284;47.042;15.498;2023-08-21T03:16:41;97691.47;;;17.80;100.00
57442;BME280;43284;47.042;15.498;2023-08-21T03:19:07;97683.78;;;17.77;100.00
57442;BME280;43284;47.042;15.498;2023-08-21T03:21:32;97686.41;;;17.77;100.00
57442;BME280;43284;47.042;15.498;2023-08-21T03:23:58;97686.31;;;17.78;100.00
57442;BME280;43284;47.042;15.498;2023-08-21T03:26:25;97688.97;;;17.78;100.00
57442;BME280;43284;47.042;15.498;2023-08-21T03:28:50;97685.25;;;17.81;100.00
57442;BME280;43284;47.042;15.498;2023-08-21T03:31:19;97684.50;;;17.79;100.00
57442;BME280;43284;47.042;15.498;2023-08-21T03:33:45;97681.88;;;17.79;100.00
57442;BME280;43284;47.042;15.498;2023-08-21T03:36:12;97688.84;;;17.80;100.00
57442;BME280;43284;47.042;15.498;2023-08-21T03:38:37;97691.47;;;17.80;100.00
57442;BME280;43284;47.042;15.498;2023-08-21T03:41:03;97689.81;;;17.79;100.00
57442;BME280;43284;47.042;15.498;2023-08-21T03:43:30;97688.97;;;17.78;100.00
57442;BME280;43284;47.042;15.498;2023-08-21T03:45:56;97689.91;;;17.77;100.00
57442;BME280;43284;47.042;15.498;2023-08-21T03:48:22;97680.38;;;17.75;100.00
57442;BME280;43284;47.042;15.498;2023-08-21T03:50:49;97688.41;;;17.73;100.00
57442;BME280;43284;47.042;15.498;2023-08-21T03:53:14;97686.84;;;17.70;100.00
57442;BME280;43284;47.042;15.498;2023-08-21T03:55:40;97692.03;;;17.72;100.00
57442;BME280;43284;47.042;15.498;2023-08-21T03:58:05;97680.81;;;17.68;100.00
57442;BME280;43284;47.042;15.498;2023-08-21T04:00:31;97683.78;;;17.64;100.00
57442;BME280;43284;47.042;15.498;2023-08-21T04:02:57;97677.63;;;17.63;100.00
57442;BME280;43284;47.042;15.498;2023-08-21T04:05:23;97680.50;;;17.60;100.00
57442;BME280;43284;47.042;15.498;2023-08-21T04:07:49;97689.59;;;17.56;100.00
57442;BME280;43284;47.042;15.498;2023-08-21T04:10:14;97685.56;;;17.50;100.00
57442;BME280;43284;47.042;15.498;2023-08-21T04:12:42;97687.56;;;17.47;100.00
57442;BME280;43284;47.042;15.498;2023-08-21T04:15:08;97689.50;;;17.45;100.00
57442;BME280;43284;47.042;15.498;2023-08-21T04:17:34;97690.00;;;17.50;100.00
57442;BME280;43284;47.042;15.498;2023-08-21T04:19:59;97693.81;;;17.46;100.00
57442;BME280;43284;47.042;15.498;2023-08-21T04:22:25;97694.88;;;17.43;100.00
57442;BME280;43284;47.042;15.498;2023-08-21T04:24:50;97689.69;;;17.42;100.00
57442;BME280;43284;47.042;15.498;2023-08-21T04:27:16;97689.78;;;17.40;100.00
57442;BME280;43284;47.042;15.498;2023-08-21T04:29:41;97686.28;;;17.40;100.00
57442;BME280;43284;47.042;15.498;2023-08-21T04:32:07;97687.88;;;17.42;100.00
57442;BME280;43284;47.042;15.498;2023-08-21T04:34:33;97687.69;;;17.45;100.00
57442;BME280;43284;47.042;15.498;2023-08-21T04:36:58;97687.69;;;17.45;100.00
57442;BME280;43284;47.042;15.498;2023-08-21T04:39:24;97689.16;;;17.49;100.00
57442;BME280;43284;47.042;15.498;2023-08-21T04:41:49;97700.50;;;17.52;100.00
57442;BME280;43284;47.042;15.498;2023-08-21T04:44:15;97697.72;;;17.53;100.00
57442;BME280;43284;47.042;15.498;2023-08-21T04:46:40;97703.00;;;17.53;100.00
57442;BME280;43284;47.042;15.498;2023-08-21T04:49:06;97698.38;;;17.57;100.00
57442;BME280;43284;47.042;15.498;2023-08-21T04:51:31;97700.91;;;17.58;100.00
57442;BME280;43284;47.042;15.498;2023-08-21T04:53:57;97701.53;;;17.62;100.00
57442;BME280;43284;47.042;15.498;2023-08-21T04:56:25;97707.47;;;17.65;100.00
57442;BME280;43284;47.042;15.498;2023-08-21T04:58:51;97713.50;;;17.67;100.00
57442;BME280;43284;47.042;15.498;2023-08-21T05:01:17;97710.00;;;17.67;100.00
57442;BME280;43284;47.042;15.498;2023-08-21T05:03:43;97707.88;;;17.72;100.00
57442;BME280;43284;47.042;15.498;2023-08-21T05:06:08;97707.66;;;17.75;100.00
57442;BME280;43284;47.042;15.498;2023-08-21T05:08:34;97703.88;;;17.79;100.00
57442;BME280;43284;47.042;15.498;2023-08-21T05:11:00;97702.84;;;17.82;100.00
57442;BME280;43284;47.042;15.498;2023-08-21T05:13:26;97712.16;;;17.87;100.00
57442;BME280;43284;47.042;15.498;2023-08-21T05:15:53;97709.19;;;17.92;100.00
57442;BME280;43284;47.042;15.498;2023-08-21T05:18:20;97712.34;;;17.97;100.00
57442;BME280;43284;47.042;15.498;2023-08-21T05:20:46;97714.69;;;18.02;100.00
57442;BME280;43284;47.042;15.498;2023-08-21T05:23:11;97717.03;;;18.06;100.00
57442;BME280;43284;47.042;15.498;2023-08-21T05:25:37;97715.94;;;18.09;100.00
57442;BME280;43284;47.042;15.498;2023-08-21T05:28:04;97715.72;;;18.12;100.00
57442;BME280;43284;47.042;15.498;2023-08-21T05:30:30;97714.66;;;18.15;100.00
57442;BME280;43284;47.042;15.498;2023-08-21T05:32:55;97724.94;;;18.19;100.00
57442;BME280;43284;47.042;15.498;2023-08-21T05:35:21;97718.34;;;18.25;100.00
57442;BME280;43284;47.042;15.498;2023-08-21T05:37:46;97725.13;;;18.29;100.00
57442;BME280;43284;47.042;15.498;2023-08-21T05:40:12;97721.22;;;18.35;100.00
57442;BME280;43284;47.042;15.498;2023-08-21T05:42:38;97724.38;;;18.40;100.00
57442;BME280;43284;47.042;15.498;2023-08-21T05:45:04;97725.59;;;18.47;100.00
57442;BME280;43284;47.042;15.498;2023-08-21T05:47:30;97720.63;;;18.55;100.00
57442;BME280;43284;47.042;15.498;2023-08-21T05:49:56;97727.28;;;18.61;100.00
57442;BME280;43284;47.042;15.498;2023-08-21T05:52:21;97716.53;;;18.75;100.00
57442;BME280;43284;47.042;15.498;2023-08-21T05:54:48;97724.91;;;18.82;100.00
57442;BME280;43284;47.042;15.498;2023-08-21T05:57:13;97728.78;;;18.89;100.00
57442;BME280;43284;47.042;15.498;2023-08-21T05:59:46;97730.03;;;18.96;100.00
57442;BME280;43284;47.042;15.498;2023-08-21T06:02:12;97725.88;;;19.05;100.00
57442;BME280;43284;47.042;15.498;2023-08-21T06:04:42;97728.66;;;19.14;100.00
57442;BME280;43284;47.042;15.498;2023-08-21T06:07:08;97725.47;;;19.22;100.00
57442;BME280;43284;47.042;15.498;2023-08-21T06:09:35;97721.38;;;19.29;100.00
57442;BME280;43284;47.042;15.498;2023-08-21T06:12:05;97722.25;;;19.41;100.00
57442;BME280;43284;47.042;15.498;2023-08-21T06:14:30;97723.16;;;19.53;100.00
57442;BME280;43284;47.042;15.498;2023-08-21T06:16:58;97722.78;;;19.58;100.00
57442;BME280;43284;47.042;15.498;2023-08-21T06:19:24;97724.84;;;19.65;100.00
57442;BME280;43284;47.042;15.498;2023-08-21T06:21:49;97730.44;;;19.73;100.00
57442;BME280;43284;47.042;15.498;2023-08-21T06:24:15;97727.31;;;19.80;100.00
57442;BME280;43284;47.042;15.498;2023-08-21T06:26:41;97725.78;;;20.00;100.00
57442;BME280;43284;47.042;15.498;2023-08-21T06:29:07;97724.31;;;20.07;100.00
57442;BME280;43284;47.042;15.498;2023-08-21T06:31:32;97728.44;;;20.11;100.00
57442;BME280;43284;47.042;15.498;2023-08-21T06:33:58;97720.47;;;20.22;100.00
57442;BME280;43284;47.042;15.498;2023-08-21T06:36:24;97728.44;;;20.33;100.00
57442;BME280;43284;47.042;15.498;2023-08-21T06:38:49;97726.72;;;20.44;100.00
57442;BME280;43284;47.042;15.498;2023-08-21T06:41:15;97725.78;;;20.67;100.00
57442;BME280;43284;47.042;15.498;2023-08-21T06:43:40;97729.00;;;20.82;100.00
57442;BME280;43284;47.042;15.498;2023-08-21T06:46:07;97724.75;;;20.91;100.00
57442;BME280;43284;47.042;15.498;2023-08-21T06:48:33;97728.47;;;20.99;100.00
57442;BME280;43284;47.042;15.498;2023-08-21T06:50:59;97727.09;;;21.05;100.00
57442;BME280;43284;47.042;15.498;2023-08-21T06:53:24;97730.09;;;21.23;100.00
57442;BME280;43284;47.042;15.498;2023-08-21T06:55:50;97730.66;;;21.27;100.00
57442;BME280;43284;47.042;15.498;2023-08-21T06:58:15;97729.75;;;21.37;100.00
57442;BME280;43284;47.042;15.498;2023-08-21T07:00:41;97728.50;;;21.53;100.00
57442;BME280;43284;47.042;15.498;2023-08-21T07:03:06;97727.34;;;21.67;100.00
57442;BME280;43284;47.042;15.498;2023-08-21T07:05:33;97723.34;;;22.03;100.00
57442;BME280;43284;47.042;15.498;2023-08-21T07:07:59;97725.88;;;22.05;100.00
57442;BME280;43284;47.042;15.498;2023-08-21T07:10:25;97724.97;;;22.15;100.00
57442;BME280;43284;47.042;15.498;2023-08-21T07:12:51;97721.41;;;22.26;100.00
57442;BME280;43284;47.042;15.498;2023-08-21T07:15:16;97724.09;;;22.36;100.00
57442;BME280;43284;47.042;15.498;2023-08-21T07:17:42;97721.13;;;22.39;100.00
57442;BME280;43284;47.042;15.498;2023-08-21T07:20:08;97731.00;;;22.48;100.00
57442;BME280;43284;47.042;15.498;2023-08-21T07:22:33;97726.69;;;22.57;100.00
57442;BME280;43284;47.042;15.498;2023-08-21T07:24:59;97725.56;;;22.69;100.00
57442;BME280;43284;47.042;15.498;2023-08-21T07:27:29;97724.31;;;22.73;100.00
57442;BME280;43284;47.042;15.498;2023-08-21T07:29:55;97723.78;;;22.79;100.00
57442;BME280;43284;47.042;15.498;2023-08-21T07:32:20;97727.88;;;22.83;100.00
57442;BME280;43284;47.042;15.498;2023-08-21T07:34:46;97719.31;;;22.90;100.00
57442;BME280;43284;47.042;15.498;2023-08-21T07:37:11;97724.38;;;22.93;98.35
57442;BME280;43284;47.042;15.498;2023-08-21T07:39:37;97714.97;;;22.98;96.67
57442;BME280;43284;47.042;15.498;2023-08-21T07:42:02;97717.25;;;23.03;95.42
57442;BME280;43284;47.042;15.498;2023-08-21T07:44:28;97719.78;;;23.14;93.50
57442;BME280;43284;47.042;15.498;2023-08-21T07:46:53;97718.97;;;23.33;90.46
57442;BME280;43284;47.042;15.498;2023-08-21T07:49:19;97724.16;;;23.44;94.46
57442;BME280;43284;47.042;15.498;2023-08-21T07:51:44;97715.25;;;23.63;94.02
57442;BME280;43284;47.042;15.498;2023-08-21T07:54:10;97722.16;;;23.66;90.29
57442;BME280;43284;47.042;15.498;2023-08-21T07:56:37;97708.66;;;23.77;89.35
57442;BME280;43284;47.042;15.498;2023-08-21T07:59:02;97712.56;;;23.83;87.86
57442;BME280;43284;47.042;15.498;2023-08-21T08:01:28;97708.50;;;23.89;87.21
57442;BME280;43284;47.042;15.498;2023-08-21T08:03:54;97705.88;;;24.16;81.65
57442;BME280;43284;47.042;15.498;2023-08-21T08:06:19;97711.44;;;24.33;81.45
57442;BME280;43284;47.042;15.498;2023-08-21T08:08:45;97704.25;;;24.33;83.22
57442;BME280;43284;47.042;15.498;2023-08-21T08:11:11;97695.94;;;24.36;82.18
57442;BME280;43284;47.042;15.498;2023-08-21T08:13:36;97707.03;;;24.41;82.30
57442;BME280;43284;47.042;15.498;2023-08-21T08:16:02;97701.75;;;24.59;85.55
57442;BME280;43284;47.042;15.498;2023-08-21T08:18:27;97705.38;;;24.68;78.08
57442;BME280;43284;47.042;15.498;2023-08-21T08:20:53;97703.03;;;24.83;77.17
57442;BME280;43284;47.042;15.498;2023-08-21T08:23:19;97699.06;;;24.87;76.91
57442;BME280;43284;47.042;15.498;2023-08-21T08:25:45;97701.19;;;25.01;81.81
57442;BME280;43284;47.042;15.498;2023-08-21T08:28:10;97708.22;;;25.30;72.01
57442;BME280;43284;47.042;15.498;2023-08-21T08:30:36;97697.88;;;25.35;71.40
57442;BME280;43284;47.042;15.498;2023-08-21T08:33:02;97699.00;;;25.51;76.68
57442;BME280;43284;47.042;15.498;2023-08-21T08:35:27;97702.56;;;25.59;75.46
57442;BME280;43284;47.042;15.498;2023-08-21T08:37:53;97696.41;;;25.67;73.00
57442;BME280;43284;47.042;15.498;2023-08-21T08:40:18;97691.44;;;25.72;68.30
57442;BME280;43284;47.042;15.498;2023-08-21T08:42:44;97691.44;;;25.72;68.22
57442;BME280;43284;47.042;15.498;2023-08-21T08:45:12;97695.31;;;25.78;69.80
57442;BME280;43284;47.042;15.498;2023-08-21T08:47:39;97691.72;;;25.87;71.33
57442;BME280;43284;47.042;15.498;2023-08-21T08:50:07;97688.97;;;25.97;70.47
57442;BME280;43284;47.042;15.498;2023-08-21T08:52:39;97684.69;;;26.12;72.18
57442;BME280;43284;47.042;15.498;2023-08-21T08:55:05;97686.88;;;26.17;70.92
57442;BME280;43284;47.042;15.498;2023-08-21T08:57:33;97686.25;;;26.23;70.97
57442;BME280;43284;47.042;15.498;2023-08-21T09:00:00;97688.78;;;26.33;74.40
57442;BME280;43284;47.042;15.498;2023-08-21T09:02:25;97687.31;;;26.38;73.38
57442;BME280;43284;47.042;15.498;2023-08-21T09:04:54;97683.16;;;26.52;71.86
57442;BME280;43284;47.042;15.498;2023-08-21T09:07:20;97680.88;;;26.57;72.29
57442;BME280;43284;47.042;15.498;2023-08-21T09:09:47;97680.44;;;26.70;73.51
57442;BME280;43284;47.042;15.498;2023-08-21T09:12:17;97682.28;;;26.78;71.38
57442;BME280;43284;47.042;15.498;2023-08-21T09:14:44;97671.72;;;26.84;72.89
57442;BME280;43284;47.042;15.498;2023-08-21T09:17:09;97683.16;;;26.95;70.22
57442;BME280;43284;47.042;15.498;2023-08-21T09:19:35;97683.50;;;27.00;71.43
57442;BME280;43284;47.042;15.498;2023-08-21T09:22:30;97670.91;;;27.08;72.37
57442;BME280;43284;47.042;15.498;2023-08-21T09:25:06;97670.94;;;27.17;71.18
57442;BME280;43284;47.042;15.498;2023-08-21T09:27:33;97671.81;;;27.25;68.15
57442;BME280;43284;47.042;15.498;2023-08-21T09:30:00;97671.31;;;27.30;64.95
57442;BME280;43284;47.042;15.498;2023-08-21T09:32:27;97673.16;;;27.29;61.17
57442;BME280;43284;47.042;15.498;2023-08-21T09:34:53;97663.91;;;27.32;62.35
57442;BME280;43284;47.042;15.498;2023-08-21T09:37:18;97665.59;;;27.41;62.89
57442;BME280;43284;47.042;15.498;2023-08-21T09:39:44;97665.25;;;27.52;64.20
57442;BME280;43284;47.042;15.498;2023-08-21T09:42:11;97665.06;;;27.62;64.52
57442;BME280;43284;47.042;15.498;2023-08-21T09:44:41;97665.06;;;27.70;64.67
57442;BME280;43284;47.042;15.498;2023-08-21T09:47:11;97658.16;;;27.76;59.13
57442;BME280;43284;47.042;15.498;2023-08-21T09:49:38;97663.41;;;27.86;60.47
57442;BME280;43284;47.042;15.498;2023-08-21T09:52:08;97650.44;;;27.89;58.59
57442;BME280;43284;47.042;15.498;2023-08-21T09:54:38;97649.22;;;28.00;57.51
57442;BME280;43284;47.042;15.498;2023-08-21T09:57:04;97654.75;;;28.07;56.74
57442;BME280;43284;47.042;15.498;2023-08-21T09:59:31;97649.72;;;28.04;52.58
57442;BME280;43284;47.042;15.498;2023-08-21T10:01:59;97644.50;;;28.10;56.84
57442;BME280;43284;47.042;15.498;2023-08-21T10:04:25;97644.81;;;28.15;57.69
57442;BME280;43284;47.042;15.498;2023-08-21T10:06:51;97647.19;;;28.10;52.97
57442;BME280;43284;47.042;15.498;2023-08-21T10:09:20;97640.47;;;28.14;50.84
57442;BME280;43284;47.042;15.498;2023-08-21T10:11:47;97636.03;;;28.30;50.23
57442;BME280;43284;47.042;15.498;2023-08-21T10:14:14;97637.69;;;28.31;53.60
57442;BME280;43284;47.042;15.498;2023-08-21T10:16:39;97641.19;;;28.31;54.96
57442;BME280;43284;47.042;15.498;2023-08-21T10:19:07;97639.00;;;28.35;51.43
57442;BME280;43284;47.042;15.498;2023-08-21T10:21:35;97643.19;;;28.38;51.88
57442;BME280;43284;47.042;15.498;2023-08-21T10:24:05;97637.50;;;28.41;52.36
57442;BME280;43284;47.042;15.498;2023-08-21T10:26:30;97635.63;;;28.49;52.88
57442;BME280;43284;47.042;15.498;2023-08-21T10:29:00;97635.63;;;28.49;51.55
57442;BME280;43284;47.042;15.498;2023-08-21T10:31:41;97640.78;;;28.59;53.24
57442;BME280;43284;47.042;15.498;2023-08-21T10:34:10;97638.69;;;28.69;50.77
57442;BME280;43284;47.042;15.498;2023-08-21T10:39:18;97634.88;;;28.87;51.02
57442;BME280;43284;47.042;15.498;2023-08-21T10:41:57;97638.53;;;28.94;50.47
57442;BME280;43284;47.042;15.498;2023-08-21T10:44:52;97637.00;;;29.00;49.55
57442;BME280;43284;47.042;15.498;2023-08-21T10:47:22;97632.03;;;29.11;49.33
57442;BME280;43284;47.042;15.498;2023-08-21T10:49:51;97628.81;;;29.08;48.49
57442;BME280;43284;47.042;15.498;2023-08-21T10:52:22;97622.63;;;29.07;47.15
57442;BME280;43284;47.042;15.498;2023-08-21T10:54:56;97631.97;;;29.20;50.34
57442;BME280;43284;47.042;15.498;2023-08-21T10:57:23;97627.06;;;29.23;50.00
57442;BME280;43284;47.042;15.498;2023-08-21T11:02:15;97630.72;;;29.30;48.76
57442;BME280;43284;47.042;15.498;2023-08-21T11:04:41;97629.69;;;29.31;46.13
57442;BME280;43284;47.042;15.498;2023-08-21T11:07:07;97628.47;;;29.34;45.62
57442;BME280;43284;47.042;15.498;2023-08-21T11:09:36;97625.22;;;29.38;46.25
57442;BME280;43284;47.042;15.498;2023-08-21T11:12:22;97623.13;;;29.49;44.37
57442;BME280;43284;47.042;15.498;2023-08-21T11:14:48;97624.72;;;29.58;48.71
57442;BME280;43284;47.042;15.498;2023-08-21T11:17:14;97625.81;;;29.72;49.07
57442;BME280;43284;47.042;15.498;2023-08-21T11:19:41;97625.16;;;29.85;48.64
57442;BME280;43284;47.042;15.498;2023-08-21T11:22:07;97616.78;;;29.94;48.61
57442;BME280;43284;47.042;15.498;2023-08-21T11:24:46;97621.22;;;30.02;48.20
57442;BME280;43284;47.042;15.498;2023-08-21T11:27:14;97617.34;;;30.05;46.98
57442;BME280;43284;47.042;15.498;2023-08-21T11:29:45;97608.88;;;30.08;45.37
57442;BME280;43284;47.042;15.498;2023-08-21T11:32:16;97615.56;;;30.12;45.10
57442;BME280;43284;47.042;15.498;2023-08-21T11:34:46;97609.78;;;30.15;45.61
57442;BME280;43284;47.042;15.498;2023-08-21T11:37:12;97609.44;;;30.18;45.08
57442;BME280;43284;47.042;15.498;2023-08-21T11:39:42;97607.63;;;30.25;46.04
57442;BME280;43284;47.042;15.498;2023-08-21T11:42:09;97610.91;;;30.35;47.31
57442;BME280;43284;47.042;15.498;2023-08-21T11:47:12;97609.03;;;30.51;46.27
57442;BME280;43284;47.042;15.498;2023-08-21T11:49:39;97606.41;;;30.57;48.67
57442;BME280;43284;47.042;15.498;2023-08-21T11:52:07;97608.25;;;30.57;45.79
57442;BME280;43284;47.042;15.498;2023-08-21T11:54:34;97604.13;;;30.61;45.66
57442;BME280;43284;47.042;15.498;2023-08-21T11:57:04;97603.38;;;30.67;46.31
57442;BME280;43284;47.042;15.498;2023-08-21T11:59:30;97607.19;;;30.73;47.86
57442;BME280;43284;47.042;15.498;2023-08-21T12:01:55;97604.09;;;30.76;44.32
57442;BME280;43284;47.042;15.498;2023-08-21T12:04:21;97604.06;;;30.91;44.52
57442;BME280;43284;47.042;15.498;2023-08-21T12:06:46;97606.75;;;30.91;47.04
57442;BME280;43284;47.042;15.498;2023-08-21T12:09:12;97603.25;;;30.90;45.52
57442;BME280;43284;47.042;15.498;2023-08-21T12:11:38;97596.03;;;30.97;45.38
57442;BME280;43284;47.042;15.498;2023-08-21T12:14:04;97598.00;;;31.10;47.06
57442;BME280;43284;47.042;15.498;2023-08-21T12:16:30;97596.47;;;31.23;44.81
57442;BME280;43284;47.042;15.498;2023-08-21T12:18:55;97588.78;;;31.26;44.25
57442;BME280;43284;47.042;15.498;2023-08-21T12:21:23;97589.28;;;31.36;45.42
57442;BME280;43284;47.042;15.498;2023-08-21T12:23:49;97589.66;;;31.55;43.98
57442;BME280;43284;47.042;15.498;2023-08-21T12:26:14;97594.94;;;31.70;44.84
57442;BME280;43284;47.042;15.498;2023-08-21T12:28:47;97592.56;;;31.81;44.13
57442;BME280;43284;47.042;15.498;2023-08-21T12:31:12;97583.00;;;31.92;42.91
57442;BME280;43284;47.042;15.498;2023-08-21T12:33:38;97587.22;;;31.95;41.73
57442;BME280;43284;47.042;15.498;2023-08-21T12:36:04;97586.84;;;32.05;42.63
57442;BME280;43284;47.042;15.498;2023-08-21T12:38:29;97576.47;;;32.08;41.33
57442;BME280;43284;47.042;15.498;2023-08-21T12:40:55;97578.59;;;32.13;43.62
57442;BME280;43284;47.042;15.498;2023-08-21T12:43:21;97571.50;;;32.18;42.62
57442;BME280;43284;47.042;15.498;2023-08-21T12:45:47;97572.41;;;32.26;43.02
57442;BME280;43284;47.042;15.498;2023-08-21T12:48:12;97574.06;;;32.33;43.96
57442;BME280;43284;47.042;15.498;2023-08-21T12:50:38;97567.63;;;32.34;42.58